Detall de PIREP

Printer-friendly versionPDF version

[2013/03/01 18:32:00]
Flight IATA:CT1004
Pilot Number:042
Company ICAO:CAT
Aircraft Type:C750/F
PAX:4
Departing Airport: LEBL
Destination Airport: GMAD
Alternate Airport:GMMX
Online: VATSIM
Route:LOTOS UM985 MGA UN869 PELAX UB11 MABAP UN869 ADM
Flight Level:F350
No Slew and time accel
No pause
Crash detect
Detect pilot in Cockpit between each 30 and 45 minutes
18:32 Zero fuel Weight: 22921 Lbs, Fuel Weight: 12974 Lbs
18:32 VATSIM:LEBL 011800Z 03008G22KT 350V120 9999 FEW020 SCT045 12/03 Q1011 NOSIG
18:32 VATSIM:GMAD 011800Z 27009KT CAVOK 16/06 Q1012 NOSIG
18:32 VOICE CATALONIAN/MWC 2013 BARCELONA CHARTER
18:38 Parking Brakes off
18:55 Take-off
18:55 Take off Weight: 35663 Lbs
18:55 Wind: 212º @ 004 Knots Heading: 066º
18:55 POS N41º 17´ 23´´ E002º 05´ 45´´
18:55 Gear Up: 154 Knots
18:55 Flaps:4 at 154 Knots
18:56 Flaps:3 at 169 Knots
18:56 Flaps:2 at 180 Knots
18:56 Flaps:0 at 182 Knots
19:06 TOC
19:06 Fuel Weight: 12138 Lb
19:10 Wind:305º@060 Knots Heading: 233º Ground Speed: 493 Knots Altitude 35042 ft
19:25 Wind:298º@056 Knots Heading: 238º Ground Speed: 483 Knots Altitude 35082 ft
19:40 Wind:285º@065 Knots Heading: 232º Ground Speed: 460 Knots Altitude 35124 ft
19:55 Wind:285º@066 Knots Heading: 219º Ground Speed: 472 Knots Altitude 35147 ft
20:10 Wind:300º@043 Knots Heading: 221º Ground Speed: 492 Knots Altitude 35108 ft
20:25 Wind:308º@054 Knots Heading: 220º Ground Speed: 502 Knots Altitude 35049 ft
20:36 TOD
20:36 Fuel Weight: 9489 Lb
20:40 Wind:292º@036 Knots Heading: 211º Ground Speed: 437 Knots Altitude 24806 ft
20:50 Flaps:2 at 200 Knots
20:51 Flaps:3 at 185 Knots
20:55 Wind:170º@008 Knots Heading: 145º Ground Speed: 183 Knots Altitude 5820 ft
20:57 Flaps:4 at 170 Knots
20:58 Gear Down: 158 Knots
20:58 Fl:56 Flaps:0 at 182 Knots
19:06 TOC
19:06 Fuel Weight: 12138 Lb
19:10 Wind:305º@060 Knots Heading: 233º Ground Speed: 493 Knots Altitude 35042 ft
19:25 Wind:298º@056 Knots Heading: 238º Ground Speed: 483 Knots Altitude 35082 ft
19:40 Wind:285º@065 Knots Heading: 232º Ground Speed: 460 Knots Altitude 35124 ft
19:55 Wind:285º@066 Knots Heading: 219º Ground Speed: 472 Knots Altitude 35147 ft
20:10 Wind:300º@043 Knots Heading: 221º Ground Speed: 492 Knots Altitude 35108 ft
20:25 Wind:308º@054 Knots Heading: 220º Ground Speed: 502 Knots Altitude 35049 ft
20:36 TOD
20:36 Fuel Weight: 9489 Lb
20:40 Wind:292º@036 Knots Heading: 211º Ground Speed: 437 Knots Altitude 24806 ft
20:50 Flaps:2 at 200 Knots
20:51 Flaps:3 at 185 Knots
20:55 Wind:170º@008 Knots Heading: 145º Ground Speed: 183 Knots Altitude 5820 ft
20:57 Flaps:4 at 170 Knots
20:58 Gear Down: 158 Knots
20:58 Flaps:5 at 153 Knots
21:02 TouchDown:Rate -658 ft/min Speed: 121 Knots
21:02 VATSIM:GMAD 011900Z 21003KT CAVOK 14/07 Q1012 NOSIG
21:02 Land
21:02 Wind:276º@008 Knots
21:02 Heading: 264º
21:02 Flight Duration: 02:07
21:02 Landing Weight: 32171 Lbs
21:02 POS N30º 19´ 21´´ W009º 24´ 39´´
21:05 Parking brakes on
21:05 Block to Block Duration: 02:27
21:05 Final Fuel: 9226 Lbls
21:05 Spent Fuel: 3747 Lbls
21:05 Flight Length: 864 NM
21:05 TOD Land Length: 74 NM

Exportar CSV

Powered by Drupal - Modified by Danger4k